createdAt,value
2023-02-02T00:03:29.768Z,3.4
2023-02-02T00:13:29.746Z,3.5
2023-02-02T00:23:29.701Z,3.6
2023-02-02T00:33:29.728Z,3.6
2023-02-02T00:43:29.701Z,3.5
2023-02-02T00:53:29.664Z,3.5
2023-02-02T01:03:29.682Z,3.4
2023-02-02T01:13:29.667Z,3.4
2023-02-02T01:23:29.618Z,3.2
2023-02-02T01:33:29.651Z,2.9
2023-02-02T01:43:29.655Z,2.7
2023-02-02T01:53:29.648Z,2.5
2023-02-02T02:03:29.657Z,2.4
2023-02-02T02:13:29.647Z,2.1
2023-02-02T02:23:29.681Z,1.7
2023-02-02T02:33:29.620Z,1.5
2023-02-02T02:43:29.576Z,1.4
2023-02-02T02:53:29.594Z,1.4
2023-02-02T03:03:29.531Z,1.1
2023-02-02T03:13:29.573Z,0.9
2023-02-02T03:23:29.531Z,0.7
2023-02-02T03:33:29.598Z,0.6
2023-02-02T03:43:29.552Z,0.6
2023-02-02T03:53:39.516Z,0.6
2023-02-02T04:03:34.569Z,0.5
2023-02-02T04:13:29.549Z,0.3
2023-02-02T04:23:29.506Z,0.2
2023-02-02T04:33:29.539Z,0.1
2023-02-02T04:43:29.496Z,0
2023-02-02T04:53:29.478Z,0.1
2023-02-02T05:03:29.464Z,0.1
2023-02-02T05:13:29.412Z,-0.1
2023-02-02T05:23:29.428Z,-0.2
2023-02-02T05:33:29.485Z,-0.3
2023-02-02T05:43:29.477Z,-0.3
2023-02-02T05:53:29.388Z,-0.2
2023-02-02T06:03:34.562Z,-0.3
2023-02-02T06:13:29.428Z,-0.3
2023-02-02T06:23:29.439Z,-0.2
2023-02-02T06:33:29.411Z,-0.3
2023-02-02T06:43:34.393Z,-0.3
2023-02-02T06:53:29.374Z,-0.2
2023-02-02T07:03:34.436Z,-0.3
2023-02-02T07:13:29.363Z,-0.4
2023-02-02T07:23:29.345Z,-0.3
2023-02-02T07:33:29.344Z,-0.1
2023-02-02T07:43:29.316Z,0.2
2023-02-02T07:53:29.335Z,0.6
2023-02-02T08:03:29.368Z,0.8
2023-02-02T08:13:29.283Z,1.1
2023-02-02T08:23:29.316Z,1.4
2023-02-02T08:33:29.301Z,1.9
2023-02-02T08:43:29.280Z,2.3
2023-02-02T08:53:29.237Z,2.6
2023-02-02T09:03:29.277Z,3
2023-02-02T09:13:29.252Z,3.3
2023-02-02T09:23:29.233Z,3.5
2023-02-02T09:33:29.247Z,3.8
2023-02-02T09:43:29.239Z,4.2
2023-02-02T09:53:29.196Z,4.7
2023-02-02T10:03:29.339Z,5.8
2023-02-02T10:23:29.143Z,9.6
2023-02-02T10:33:29.193Z,11.5
2023-02-02T10:43:29.119Z,12.6
2023-02-02T10:53:29.089Z,13.1
2023-02-02T11:03:29.085Z,14.1
2023-02-02T11:13:29.199Z,14.8
2023-02-02T11:23:29.082Z,15.3
2023-02-02T11:33:29.060Z,15.8
2023-02-02T11:43:29.054Z,16.1
2023-02-02T11:53:28.981Z,16.6
2023-02-02T12:03:28.981Z,16.6
2023-02-02T12:13:28.973Z,16.9
2023-02-02T12:23:28.906Z,17.7
2023-02-02T12:33:28.917Z,16.2
2023-02-02T12:43:28.896Z,16.3
2023-02-02T12:53:28.888Z,15.6
2023-02-02T13:03:28.900Z,15.3
2023-02-02T13:13:28.830Z,15.8
2023-02-02T13:23:28.822Z,16.1
2023-02-02T13:33:28.818Z,15.9
2023-02-02T13:43:28.798Z,15.4
2023-02-02T13:53:28.746Z,15.1
2023-02-02T14:03:28.783Z,14.3
2023-02-02T14:13:28.789Z,14.3
2023-02-02T14:23:28.689Z,14.2
2023-02-02T14:33:28.700Z,13.6
2023-02-02T14:43:28.718Z,13.1
2023-02-02T14:53:28.653Z,13.1
2023-02-02T15:03:28.656Z,13.4
2023-02-02T15:13:28.635Z,13.4
2023-02-02T15:23:28.613Z,13.2
2023-02-02T15:33:28.648Z,13.2
2023-02-02T15:43:28.574Z,13.2
2023-02-02T15:53:28.544Z,13
2023-02-02T16:03:28.544Z,12.3
2023-02-02T16:13:28.555Z,11.4
2023-02-02T16:23:28.493Z,10.7
2023-02-02T16:33:28.499Z,10.1
2023-02-02T16:43:28.516Z,9.6
2023-02-02T16:53:28.426Z,9.1
2023-02-02T17:03:28.458Z,8.7
2023-02-02T17:13:28.457Z,8.3
2023-02-02T17:23:28.393Z,7.8
2023-02-02T17:33:28.425Z,7.8
2023-02-02T17:43:28.388Z,7.9
2023-02-02T17:53:28.352Z,7.8
2023-02-02T18:03:28.437Z,7.7
2023-02-02T18:13:28.357Z,7.6
2023-02-02T18:23:28.329Z,7.5
2023-02-02T18:33:28.318Z,7.2
2023-02-02T18:43:28.315Z,7.1
2023-02-02T18:53:28.254Z,6.9
2023-02-02T19:03:28.347Z,6.6
2023-02-02T19:13:28.279Z,6.4
2023-02-02T19:23:28.232Z,6.3
2023-02-02T19:33:28.251Z,6.1
2023-02-02T19:43:28.218Z,5.8
2023-02-02T19:53:28.211Z,5.2
2023-02-02T20:03:28.291Z,4.7
2023-02-02T20:13:28.204Z,4.2
2023-02-02T20:23:28.138Z,4
2023-02-02T20:33:28.175Z,3.8
2023-02-02T20:43:28.186Z,3.5
2023-02-02T20:53:28.113Z,3.4
2023-02-02T21:03:28.131Z,3.4
2023-02-02T21:13:28.151Z,3.1
2023-02-02T21:23:28.071Z,2.8
2023-02-02T21:33:28.096Z,2.7
2023-02-02T21:43:28.092Z,2.5
2023-02-02T21:53:28.041Z,2.3
2023-02-02T22:03:28.111Z,2.4
2023-02-02T22:13:28.055Z,2.3
2023-02-02T22:23:28.028Z,2.2
2023-02-02T22:33:28.057Z,1.9
2023-02-02T22:43:28.044Z,1.6
2023-02-02T22:53:27.992Z,1.5
2023-02-02T23:03:28.033Z,1.6
2023-02-02T23:13:28.001Z,1.4
2023-02-02T23:23:27.968Z,1.2
2023-02-02T23:33:27.973Z,1
2023-02-02T23:43:28.032Z,0.9
2023-02-02T23:53:27.928Z,0.9
